• Join FlightAware (Why Join?)
  • Login
  • US Flag 
11:26PM EST


 

Airport Tracker/Info


-or-


 

Live Flight TrackerFlight Track Log ✈ N960DL ✈ 01-May-2013 ✈ KIAH - KATL

Flight Track Log - Related Links

Times and Time Zones

All times are in EDT time to prevent confusion due to time zone crossing. See the N960DL flight status page for this flight to view local times or setup timezone preferences in your user account.

Time Position Orientation Groundspeed Altitude Reporting Facility
EDT Latitude Longitude Course Direction KTS MPH feet Rate Location/Type
08:22AM 29.9617 -95.3436 65° Northeast 154 177 1,100  Level Houston Center
08:23AM 29.9403 -95.3147 131° Southeast 208 239 2,100 1,800 Climbing Houston Center
08:24AM 29.9025 -95.2597 128° Southeast 250 288 3,900 2,220 Climbing Houston Center
08:25AM 29.9834 -94.9301 90° East  Level FlightAware Approximate
08:25AM 29.8550 -95.1933 130° Southeast 264 304 6,500  Level Houston Center
08:26AM 29.9834 -94.7956 90° East  Level FlightAware Approximate
08:26AM 29.8244 -95.1042 112° Southeast 294 338 9,900  Level Houston Center
08:27AM 29.9833 -94.6612 90° East  Level FlightAware Approximate
08:27AM 29.7833 -95.0161 118° Southeast 317 365 13,000  Level Houston Center
08:28AM 30.0322 -94.5425 65° Northeast  Level Estimated
08:28AM 29.6911 -95.0017 172° South 337 388 15,300  Level Houston Center
08:29AM 29.5908 -95.0050 182° South 352 405 16,000 960 Climbing Houston Center
08:30AM 29.4944 -94.9686 162° South 367 422 17,400 1,380 Climbing Houston Center
08:31AM 29.3975 -94.9247 158° South 372 428 18,900 1,740 Climbing Houston Center
08:32AM 29.2864 -94.8728 158° South 423 487 21,000 2,220 Climbing Houston Center
08:33AM 29.2011 -94.7381 126° Southeast 444 511 23,500 2,100 Climbing Houston Center
08:34AM 29.1367 -94.6147 121° Southeast 453 521 25,400 1,680 Climbing Houston Center
08:35AM 29.0692 -94.4878 121° Southeast 466 536 27,000 1,440 Climbing Houston Center
08:36AM 29.0039 -94.3558 119° Southeast 478 550 28,400 1,560 Climbing Houston Center
08:37AM 28.9981 -94.2011 92° East 484 557 30,300 1,740 Climbing Houston Center
08:38AM 28.9992 -94.0497 89° East 482 555 32,000 1,620 Climbing Houston Center
08:39AM 29.0003 -93.9011 89° East 474 545 33,700 1,260 Climbing Houston Center
08:40AM 29.0247 -93.7603 79° East 462 532 34,700 600 Climbing Houston Center
08:41AM 29.0911 -93.6025 64° Northeast 457 526 35,000 120 Climbing Houston Center
08:42AM 29.1458 -93.4728 64° Northeast 457 526 35,000  Level Houston Center
08:43AM 29.2028 -93.3414 64° Northeast 461 531 35,000  Level Houston Center
08:44AM 29.2572 -93.2072 65° Northeast 464 534 35,000  Level Houston Center
08:45AM 29.3125 -93.0744 64° Northeast 465 535 35,000  Level Houston Center
08:46AM 29.3686 -92.9386 65° Northeast 470 541 35,000  Level Houston Center
08:47AM 29.4350 -92.7736 65° Northeast 476 548 35,000  Level Houston Center
08:48AM 29.4917 -92.6381 64° Northeast 474 545 35,000  Level Houston Center
08:49AM 29.5483 -92.4997 65° Northeast 478 550 35,000  Level Houston Center
08:50AM 29.6042 -92.3614 65° Northeast 479 551 35,000  Level Houston Center
08:51AM 29.6614 -92.2228 65° Northeast 481 554 35,000 -60 Level Houston Center
08:52AM 29.7189 -92.0839 64° Northeast 482 555 34,900  Descending Houston Center
08:54AM 29.7736 -91.9453 66° East 479 551 35,000  Climbing Houston Center
08:55AM 29.8419 -91.7783 65° Northeast 481 554 35,000  Level Houston Center
08:56AM 29.8889 -91.6600 65° Northeast 482 555 35,000  Level Houston Center
08:57AM 29.9558 -91.4944 65° Northeast 477 549 35,000  Level Houston Center
08:58AM 30.0100 -91.3561 66° East 474 545 35,000  Level Houston Center
08:59AM 30.0644 -91.2175 66° East 474 545 35,000  Level Houston Center
09:00AM 30.1197 -91.0783 65° Northeast 477 549 35,000  Level Houston Center
09:01AM 30.1733 -90.9389 66° East 477 549 35,000  Level Houston Center
09:02AM 30.2272 -90.7978 66° East 474 545 35,000  Level Houston Center
09:03AM 30.2817 -90.6592 66° East 478 550 35,000  Level Houston Center
09:04AM 30.3358 -90.5150 66° East 485 558 35,000  Level Houston Center
09:05AM 30.4019 -90.3433 66° East 487 560 35,000  Level Houston Center
09:06AM 30.4564 -90.2000 66° East 485 558 35,000  Level Houston Center
09:07AM 30.5125 -90.0572 65° Northeast 483 556 35,000  Level Houston Center
09:08AM 30.5672 -89.9122 66° East 485 558 35,000  Level Houston Center
09:09AM 30.6222 -89.7669 66° East 485 558 35,000  Level Houston Center
09:10AM 30.6781 -89.6233 66° East 484 557 35,000  Level Houston Center
09:11AM 30.7317 -89.4786 67° East 486 559 35,000  Level Houston Center
09:12AM 30.7869 -89.3322 66° East 491 565 35,000 -720 Level Houston Center
09:13AM 30.8386 -89.1861 68° East 490 564 33,600 -1,440 Descending Houston Center
09:14AM 30.8933 -89.0403 66° East 490 564 32,100 -1,620 Descending Houston Center
09:15AM 30.9564 -88.8692 67° East 484 557 30,300 -1,260 Descending Houston Center
09:16AM 31.0089 -88.7247 67° East 483 556 29,600 -720 Descending Houston Center
09:17AM 31.0617 -88.5800 67° East 483 556 28,900 -300 Descending Houston Center
09:18AM 31.1183 -88.4408 65° Northeast 477 549 29,000  Climbing Houston Center
09:19AM 31.2117 -88.3067 51° Northeast 507 583 29,000  Level Atlanta Center
09:20AM 31.2892 -88.1792 55° Northeast 507 583 29,000  Level Atlanta Center
09:21AM 31.3683 -88.0514 54° Northeast 495 570 29,000  Level Atlanta Center
09:22AM 31.4456 -87.9258 54° Northeast 483 556 29,000  Level Atlanta Center
09:23AM 31.5244 -87.8003 54° Northeast 478 550 29,000  Level Atlanta Center
09:24AM 31.6036 -87.6719 54° Northeast 478 550 29,000  Level Atlanta Center
09:25AM 31.6803 -87.5456 54° Northeast 484 557 29,000  Level Atlanta Center
09:26AM 31.7569 -87.4167 55° Northeast 484 557 29,000  Level Atlanta Center
09:27AM 31.8206 -87.3017 57° Northeast 484 557 29,000  Level Atlanta Center
09:28AM 31.8925 -87.1819 55° Northeast 471 542 29,000  Level Atlanta Center
09:29AM 31.9667 -87.0550 55° Northeast 465 535 29,000  Level Atlanta Center
09:30AM 32.0447 -86.9278 54° Northeast 465 535 29,000 -480 Level Atlanta Center
09:31AM 32.1186 -86.8025 55° Northeast 470 541 28,100 -900 Descending Atlanta Center
09:32AM 32.1569 -86.6639 72° East 426 490 27,300 -780 Descending Atlanta Center
09:33AM 32.1492 -86.5433 94° East 382 440 26,600 -1,020 Descending Atlanta Center
09:34AM 32.2197 -86.4497 48° Northeast 366 421 25,300 -840 Descending Atlanta Center
09:35AM 32.2844 -86.3433 54° Northeast 372 428 25,000 -180 Descending Atlanta Center
09:36AM 32.3094 -86.2286 76° East 359 413 25,000  Level Atlanta Center
09:37AM 32.2992 -86.1053 96° East 367 422 25,000  Level Atlanta Center
09:38AM 32.2844 -85.9872 98° East 367 422 25,000 -900 Level Atlanta Center
09:40AM 32.3952 -85.8621 44° Northeast  Level Estimated
09:47AM 32.9746 -85.2001 44° Northeast  Level Estimated
09:48AM 33.0571 -85.1048 44° Northeast  Level Estimated
09:49AM 33.1395 -85.0094 44° Northeast  Level Estimated
09:50AM 33.2219 -84.9137 44° Northeast  Level Estimated
09:51AM 33.3041 -84.8179 44° Northeast  Level Estimated
09:51AM 33.1333 -85.1000 44° Northeast 354 407 13,000  Level Atlanta TRACON
09:52AM 33.3863 -84.7219 44° Northeast  Level Estimated
09:52AM 33.1833 -85.0333 48° Northeast 297 342 12,000  Level Atlanta TRACON
09:53AM 33.4685 -84.6257 44° Northeast  Level Estimated
09:53AM 33.2500 -84.9667 40° Northeast 295 339 11,000  Level Atlanta TRACON
09:54AM 33.5505 -84.5294 44° Northeast  Level Estimated
09:54AM 33.3167 -84.9167 32° Northeast 289 333 8,900  Level Atlanta TRACON
09:55AM 33.6325 -84.4328 44° Northeast  Level Estimated
09:55AM 33.4000 -84.9000 North 292 336 8,000  Level Atlanta TRACON
09:56AM 33.6367 -84.4279 44° Northeast  Level Estimated
09:56AM 33.4667 -84.9000 360° North 271 312 8,000  Level Atlanta TRACON
09:57AM 33.5333 -84.9000 360° North 217 250 8,000 -360 Level Atlanta TRACON
09:58AM 33.6000 -84.9167 348° North 223 257 7,300 -360 Descending Atlanta TRACON
10:00AM 33.6333 -84.8167 68° East 178 205 7,000 -420 Descending Atlanta TRACON
10:01AM 33.6333 -84.7667 90° East 183 211 6,200 -1,020 Descending Atlanta TRACON
10:02AM 33.6333 -84.7000 90° East 177 204 5,000 -1,020 Descending Atlanta TRACON
10:03AM 33.6333 -84.6500 90° East 175 201 4,200 -900 Descending Atlanta TRACON
10:04AM 33.6333 -84.5833 90° East 158 182 3,200 -960 Descending Atlanta TRACON